Главная страница
METAR-TAF:

METAR-TAF

Аэропорты :

Хартум, Судан

широта: 15-36N, долгота: 032-33E, высота над уровнем моря: 382 м

Текущие метеонаблюдения

Эта сводка был подготовлена 30 минут назад, в 05:30 UTC
Ветер 18 Узел от южный
Температура 25°C
Влажность 61%
Давление 1011 hPa
Видимость 10 км и более
небольшая облачность на высоте 5000 фута
Рассеянная облачность на высоте 14000 фута

METAR: HSSS 250530Z 17018KT 9999 FEW050 BKN140 25/17 Q1011 NOSIG

Время: 09:00 (06:00 UTC)

Прогноз

Эта сводка был подготовлена 1 час и 0 минут назад, в 05:00 UTC
Прогноз действительный с 25-го 06 UTC до 26-го 12 UTC
Ветер 15 Узел от южный с порывами до 25 Узел
Видимость 10 км и более
небольшая облачность на высоте 4000 фута
Отдельные облака на высоте 14000 фута
временами
С 25-го 06 UTC до 25-го 09 UTC
Видимость: 6000 м

TAF: HSSS 250500Z 2506/2612 18015G25KT 9999 FEW040 SCT140 TEMPO 2506/2509 6000

Метеонаблюдения и прогнозы для более 4000 аэропортов (сводки METAR и TAF).

Имеющиеся станции представлены на карте желтыми и красными точками.

Чтобы увидеть название станции, наведите на нее мышь.

Затем щелкните, чтобы увидеть метеонаблюдения и метеопрогнозы.

Управление картой: чтобы увеличить масштаб, щелкните зеленые кнопки с черным крестиком; чтобы уменьшить масштаб, щелкните зеленую кнопку с тире; для просмотра соседних карт щелкайте зеленые стрелки.


METAR-TAF: